Terminal Aerodrome Forecast
Issued by NWS

Home | Current Version | Previous Version | Text Only | Print | Product List | Glossary On
Versions: 1 2 3 4 5 6 7 8 9 10 11 12 13 14 15 16 17 18
578
FTUS43 KFGF 201720
TAFBJI
TAF
KBJI 201720Z 2018/2118 12007KT 2SM BR OVC003
      TEMPO 2019/2022 5SM -RA BR OVC020
     FM211200 12006KT 2SM BR OVC003=

USA.gov is the U.S. government's official web portal to all federal, state and local government web resources and services.